Newhall, IA (52315)

5:31 PM CDT on May 03, 2015 (GMT -0500)
Shellsburg | | Change Station
CLOSE
Current Station
Personal Weather Station
Location: Shellsburg, IA
Elevation: 869 ft
Nearby Weather Stations

Elev 869 ft 42.09 °N, 91.92 °W | Updated 3 minutes ago

Clear
Clear
83.5 °F
Feels Like 84 °F
N
15.0
Wind Variable Wind from South

Today
High -- | Low -- °F
--% Chance of Precip.
Yesterday
High -- | Low -- °F
Precip. -- in
6:01 AM 8:08 PM
Full, 100% visible
Pressure 29.80 in
Visibility 10.0 miles
Clouds Few 10000 ft
Heat Index 84 °F
Dew Point 61 °F
Humidity 47%
Rainfall 1.39 in
Snow Depth Not available.
UV 4 out of 12
Pollen 10.30 out of 12
Air Quality Not available.
Flu Activity Local Activity
METAR KCID 032152Z 20010G20KT 10SM FEW100 28/15 A2981 RMK AO2 SLP089 T02780150 $

More Conditions Fewer Conditions

Pressure 29.80 in
Visibility 10.0 miles
Clouds Few 10000 ft
Heat Index 84 °F
Dew Point 61 °F
Humidity 47%
Rainfall 1.39 in
Snow Depth Not available.
UV 4 out of 12
Pollen 10.30 out of 12
Air Quality Not available.
Flu Activity Local Activity
METAR KCID 032152Z 20010G20KT 10SM FEW100 28/15 A2981 RMK AO2 SLP089 T02780150 $

More Conditions Fewer Conditions

Nepal has a long way to go to dig out and rebuild from a devastating earthquake. We have teamed up with several charities and organizations to make contributing to the relief effort as easy as possible.
How you can help: Portlight Strategies | Red Cross

10-Day Weather Forecast

Almanac

Astronomy

May. 03, 2015 Rise Set
Actual Time
Civil Twilight
Nautical Twilight
Astronomical Twilight
Moon
Length of Visible Light
Length of Day
Tomorrow will be .
, % of the Moon is Illuminated

Today's Extremes

State Highs State Lows

Community

WunderPhotos

Upload Photos

1,818,399 photos uploaded!

WunderBlogs® & News

Nearby

Air Quality

  Air Quality AQ Index Pollutant
Not available.

Snow Depth

Station Depth Elevation

Earthquake Activity

City Distance Mag. Time & Date
Minimum magnitude displayed is 2.5.

Coastal Water Temperatures

Place Temperature

Stations

Nearby Weather Stations

Station Location Temp. Windchill Dew Point Humidity Wind Precip. Elev Updated Type